createdAt,value
2023-10-26T00:00:34.937Z,7.82
2023-10-26T00:03:01.791Z,7.03
2023-10-26T00:05:28.436Z,7.38
2023-10-26T00:07:54.874Z,7.60
2023-10-26T00:10:21.296Z,7.90
2023-10-26T00:12:47.738Z,8.40
2023-10-26T00:15:14.151Z,6.93
2023-10-26T00:17:40.713Z,7.10
2023-10-26T00:20:08.228Z,7.82
2023-10-26T00:22:34.703Z,6.72
2023-10-26T00:25:01.097Z,8.13
2023-10-26T00:27:28.009Z,7.40
2023-10-26T00:29:54.422Z,8.00
2023-10-26T00:32:20.884Z,7.55
2023-10-26T00:34:47.369Z,8.20
2023-10-26T00:37:13.726Z,7.95
2023-10-26T00:39:40.168Z,7.45
2023-10-26T00:42:06.598Z,9.10
2023-10-26T00:44:33.077Z,8.23
2023-10-26T00:46:59.885Z,7.43
2023-10-26T00:49:26.470Z,7.70
2023-10-26T00:51:58.160Z,8.13
2023-10-26T00:56:52.492Z,8.50
2023-10-26T00:59:19.458Z,7.80
2023-10-26T01:01:47.150Z,8.13
2023-10-26T01:04:17.402Z,8.05
2023-10-26T01:06:45.444Z,7.55
2023-10-26T01:09:12.394Z,8.35
2023-10-26T01:11:40.349Z,8.00
2023-10-26T01:14:08.177Z,8.20
2023-10-26T01:16:35.921Z,8.48
2023-10-26T01:19:04.625Z,8.88
2023-10-26T01:21:51.000Z,7.60
2023-10-26T01:24:18.182Z,8.00
2023-10-26T01:26:44.990Z,8.38
2023-10-26T01:29:11.448Z,7.97
2023-10-26T01:31:38.085Z,8.23
2023-10-26T01:34:05.653Z,7.72
2023-10-26T01:36:32.543Z,9.10
2023-10-26T01:39:01.370Z,9.02
2023-10-26T01:41:32.756Z,9.32
2023-10-26T01:44:01.247Z,8.75
2023-10-26T01:46:27.775Z,9.45
2023-10-26T01:48:54.535Z,8.20
2023-10-26T01:51:21.083Z,8.90
2023-10-26T01:53:47.595Z,8.88
2023-10-26T01:56:14.090Z,7.88
2023-10-26T01:58:40.525Z,8.48
2023-10-26T02:01:06.920Z,7.43
2023-10-26T02:03:33.376Z,9.07
2023-10-26T02:05:59.933Z,9.10
2023-10-26T02:08:26.469Z,8.32
2023-10-26T02:10:52.913Z,9.43
2023-10-26T02:13:19.413Z,8.70
2023-10-26T02:15:45.784Z,9.38
2023-10-26T02:18:12.189Z,8.35
2023-10-26T02:20:38.645Z,8.60
2023-10-26T02:23:06.048Z,7.82
2023-10-26T02:25:32.734Z,7.75
2023-10-26T02:27:59.194Z,7.70
2023-10-26T02:30:25.727Z,8.07
2023-10-26T02:32:52.242Z,7.90
2023-10-26T02:35:21.831Z,7.53
2023-10-26T02:37:49.216Z,7.50
2023-10-26T02:40:15.631Z,7.72
2023-10-26T02:42:42.104Z,7.55
2023-10-26T02:45:09.737Z,7.78
2023-10-26T02:47:38.639Z,8.23
2023-10-26T02:50:06.873Z,8.48
2023-10-26T02:52:33.301Z,8.43
2023-10-26T02:54:59.677Z,8.13
2023-10-26T02:57:26.184Z,8.50
2023-10-26T02:59:52.682Z,7.70
2023-10-26T03:02:19.212Z,8.98
2023-10-26T03:04:45.643Z,9.07
2023-10-26T03:07:12.491Z,10.10
2023-10-26T03:09:39.041Z,8.95
2023-10-26T03:12:05.901Z,9.50
2023-10-26T03:14:32.917Z,8.55
2023-10-26T03:16:59.349Z,10.10
2023-10-26T03:19:25.884Z,10.15
2023-10-26T03:21:52.376Z,10.73
2023-10-26T03:24:18.753Z,9.07
2023-10-26T03:26:45.236Z,9.70
2023-10-26T03:29:11.747Z,9.88
2023-10-26T03:31:39.154Z,8.82
2023-10-26T03:34:05.624Z,9.30
2023-10-26T03:36:32.805Z,9.75
2023-10-26T03:38:59.821Z,9.65
2023-10-26T03:41:26.245Z,10.07
2023-10-26T03:43:52.743Z,9.80
2023-10-26T03:46:19.342Z,10.35
2023-10-26T03:48:45.723Z,8.82
2023-10-26T03:51:12.208Z,9.27
2023-10-26T03:53:38.768Z,8.52
2023-10-26T03:56:05.755Z,9.88
2023-10-26T03:58:32.430Z,9.30
2023-10-26T04:00:59.348Z,9.10
2023-10-26T04:03:26.242Z,8.90
2023-10-26T04:05:53.919Z,10.02
2023-10-26T04:08:20.376Z,9.70
2023-10-26T04:10:46.813Z,8.38
2023-10-26T04:13:13.257Z,9.55
2023-10-26T04:15:39.675Z,9.25
2023-10-26T04:18:09.527Z,9.20
2023-10-26T04:20:36.132Z,8.60
2023-10-26T04:23:02.711Z,8.00
2023-10-26T04:25:42.394Z,8.77
2023-10-26T04:28:18.470Z,8.65
2023-10-26T04:30:48.663Z,8.65
2023-10-26T04:33:18.611Z,7.35
2023-10-26T04:35:46.535Z,8.23
2023-10-26T04:38:13.002Z,8.07
2023-10-26T04:40:40.687Z,7.35
2023-10-26T04:43:07.716Z,8.52
2023-10-26T04:45:34.552Z,8.82
2023-10-26T04:48:02.240Z,10.50
2023-10-26T04:50:31.116Z,8.52
2023-10-26T04:52:59.326Z,8.20
2023-10-26T04:55:31.289Z,10.27
2023-10-26T04:57:57.921Z,8.68
2023-10-26T05:00:24.526Z,9.40
2023-10-26T05:02:50.903Z,8.57
2023-10-26T05:05:17.330Z,9.65
2023-10-26T05:07:43.890Z,9.27
2023-10-26T05:10:10.419Z,9.40
2023-10-26T05:12:36.940Z,8.75
2023-10-26T05:15:05.169Z,9.13
2023-10-26T05:17:32.597Z,8.43
2023-10-26T05:19:59.042Z,9.32
2023-10-26T05:22:25.521Z,8.88
2023-10-26T05:24:51.937Z,8.25
2023-10-26T05:27:19.891Z,8.27
2023-10-26T05:29:46.304Z,10.40
2023-10-26T05:32:12.685Z,9.13
2023-10-26T05:34:39.112Z,9.77
2023-10-26T05:37:05.501Z,9.00
2023-10-26T05:39:33.229Z,10.82
2023-10-26T05:41:59.964Z,9.05
2023-10-26T05:44:26.445Z,7.93
2023-10-26T05:46:53.069Z,9.15
2023-10-26T05:49:19.448Z,7.82
2023-10-26T05:51:45.836Z,7.72
2023-10-26T05:54:12.346Z,9.30
2023-10-26T05:56:38.844Z,9.15
2023-10-26T05:59:06.076Z,8.57
2023-10-26T06:01:33.129Z,8.93
2023-10-26T06:03:59.819Z,7.78
2023-10-26T06:06:26.315Z,8.57
2023-10-26T06:08:55.490Z,8.57
2023-10-26T06:11:21.940Z,7.85
2023-10-26T06:13:49.606Z,8.43
2023-10-26T06:16:17.248Z,8.05
2023-10-26T06:18:44.029Z,9.10
2023-10-26T06:21:10.628Z,8.48
2023-10-26T06:23:37.156Z,8.02
2023-10-26T06:26:04.747Z,8.27
2023-10-26T06:28:31.548Z,8.25
2023-10-26T06:31:09.444Z,7.88
2023-10-26T06:33:36.086Z,7.68
2023-10-26T06:36:03.889Z,7.50
2023-10-26T06:38:30.486Z,8.50
2023-10-26T06:40:57.020Z,7.65
2023-10-26T06:43:26.924Z,8.50
2023-10-26T06:45:53.467Z,7.82
2023-10-26T06:48:20.666Z,7.47
2023-10-26T06:50:50.313Z,7.55
2023-10-26T06:53:16.844Z,7.13
2023-10-26T06:55:43.950Z,6.15
2023-10-26T06:58:10.381Z,7.43
2023-10-26T07:00:36.865Z,7.38
2023-10-26T07:03:04.125Z,7.65
2023-10-26T07:05:30.764Z,8.73
2023-10-26T07:08:00.623Z,7.43
2023-10-26T07:10:27.574Z,6.60
2023-10-26T07:12:54.039Z,6.25
2023-10-26T07:15:20.564Z,6.07
2023-10-26T07:17:47.148Z,7.10
2023-10-26T07:20:16.411Z,5.60
2023-10-26T07:22:46.278Z,6.47
2023-10-26T07:25:12.830Z,7.07
2023-10-26T07:27:39.992Z,6.13
2023-10-26T07:30:07.562Z,6.28
2023-10-26T07:32:34.058Z,6.13
2023-10-26T07:35:02.378Z,7.40
2023-10-26T07:37:29.382Z,6.13
2023-10-26T07:40:25.682Z,7.28
2023-10-26T07:42:42.217Z,5.63
2023-10-26T07:45:08.997Z,5.75
2023-10-26T07:47:35.505Z,6.65
2023-10-26T07:50:02.468Z,6.75
2023-10-26T07:52:28.918Z,5.78
2023-10-26T07:54:55.377Z,6.40
2023-10-26T07:57:21.870Z,7.35
2023-10-26T07:59:48.314Z,5.95
2023-10-26T08:02:14.989Z,5.53
2023-10-26T08:04:41.650Z,5.50
2023-10-26T08:07:09.335Z,6.00
2023-10-26T08:09:35.793Z,6.20
2023-10-26T08:12:02.570Z,5.00
2023-10-26T08:16:30.932Z,5.07
2023-10-26T08:17:18.304Z,4.97
2023-10-26T08:19:44.804Z,4.93
2023-10-26T08:22:11.772Z,4.95
2023-10-26T08:24:38.740Z,6.05
2023-10-26T08:27:05.288Z,6.10
2023-10-26T08:29:32.700Z,5.32
2023-10-26T08:31:59.516Z,5.05
2023-10-26T08:34:27.502Z,5.20
2023-10-26T08:37:11.495Z,4.93
2023-10-26T08:39:40.078Z,5.80
2023-10-26T08:42:06.686Z,5.65
2023-10-26T08:44:33.435Z,5.63
2023-10-26T08:47:04.009Z,5.85
2023-10-26T08:49:31.708Z,5.65
2023-10-26T08:51:59.215Z,5.60
2023-10-26T08:54:27.344Z,6.07
2023-10-26T08:56:54.286Z,6.10
2023-10-26T08:59:22.434Z,5.20
2023-10-26T09:01:49.391Z,6.20
2023-10-26T09:04:16.895Z,5.55
2023-10-26T09:06:47.355Z,5.82
2023-10-26T09:09:17.286Z,6.00
2023-10-26T09:11:47.891Z,6.78
2023-10-26T09:14:21.841Z,6.60
2023-10-26T09:16:49.784Z,6.95
2023-10-26T09:19:18.917Z,6.10
2023-10-26T09:21:58.867Z,6.30
2023-10-26T09:24:27.786Z,6.93
2023-10-26T09:26:55.469Z,6.68
2023-10-26T09:29:22.688Z,7.30
2023-10-26T09:31:56.050Z,6.82
2023-10-26T09:34:26.190Z,6.10
2023-10-26T09:37:05.761Z,6.95
2023-10-26T09:39:37.774Z,6.72
2023-10-26T09:42:07.770Z,7.03
2023-10-26T09:44:34.909Z,6.82
2023-10-26T09:47:01.630Z,7.82
2023-10-26T09:49:28.489Z,7.65
2023-10-26T09:51:55.311Z,8.10
2023-10-26T09:54:25.584Z,7.53
2023-10-26T09:57:02.698Z,7.55
2023-10-26T09:59:29.878Z,7.55
2023-10-26T10:01:56.483Z,8.40
2023-10-26T10:04:38.908Z,7.53
2023-10-26T10:07:06.236Z,9.70
2023-10-26T10:09:33.376Z,8.57
2023-10-26T10:12:25.834Z,9.27
2023-10-26T10:15:15.566Z,8.43
2023-10-26T10:17:45.309Z,8.07
2023-10-26T10:20:14.788Z,9.18
2023-10-26T10:22:41.443Z,10.07
2023-10-26T10:25:11.512Z,9.65
2023-10-26T10:27:39.078Z,9.20
2023-10-26T10:30:09.098Z,9.70
2023-10-26T10:32:44.694Z,8.93
2023-10-26T10:35:23.763Z,9.02
2023-10-26T10:38:15.314Z,8.93
2023-10-26T10:41:09.584Z,8.68
2023-10-26T10:43:46.780Z,8.57
2023-10-26T10:46:15.943Z,9.70
2023-10-26T10:49:05.607Z,9.27
2023-10-26T10:51:39.618Z,8.57
2023-10-26T10:54:27.055Z,9.52
2023-10-26T10:56:59.057Z,9.23
2023-10-26T10:59:27.094Z,9.02
2023-10-26T11:02:15.660Z,10.00
2023-10-26T11:04:59.521Z,8.10
2023-10-26T11:07:27.473Z,8.70
2023-10-26T11:09:58.381Z,8.60
2023-10-26T11:12:25.132Z,9.13
2023-10-26T11:14:53.776Z,9.52
2023-10-26T11:17:21.140Z,8.52
2023-10-26T11:19:48.660Z,9.07
2023-10-26T11:22:16.228Z,8.45
2023-10-26T11:24:43.955Z,9.38
2023-10-26T11:27:11.493Z,8.43
2023-10-26T11:29:38.933Z,9.10
2023-10-26T11:32:26.424Z,8.52
2023-10-26T11:35:07.150Z,9.10
2023-10-26T11:37:38.380Z,8.75
2023-10-26T11:40:06.196Z,8.98
2023-10-26T11:42:47.692Z,9.52
2023-10-26T11:45:18.664Z,9.30
2023-10-26T11:47:50.070Z,9.07
2023-10-26T11:50:28.070Z,9.70
2023-10-26T11:52:56.397Z,10.10
2023-10-26T11:55:24.029Z,9.85
2023-10-26T11:57:51.658Z,8.95
2023-10-26T12:00:20.379Z,9.88
2023-10-26T12:02:46.937Z,9.52
2023-10-26T12:05:19.609Z,9.68
2023-10-26T12:07:47.800Z,8.77
2023-10-26T12:10:16.386Z,8.65
2023-10-26T12:12:42.902Z,8.77
2023-10-26T12:15:09.961Z,9.75
2023-10-26T12:17:36.804Z,8.35
2023-10-26T12:20:05.831Z,8.88
2023-10-26T12:22:32.644Z,9.10
2023-10-26T12:24:59.168Z,9.82
2023-10-26T12:27:25.980Z,9.13
2023-10-26T12:29:52.433Z,9.88
2023-10-26T12:32:20.891Z,9.48
2023-10-26T12:34:47.319Z,9.02
2023-10-26T12:37:13.739Z,9.02
2023-10-26T12:39:40.174Z,8.90
2023-10-26T12:42:06.637Z,8.27
2023-10-26T12:44:33.171Z,9.05
2023-10-26T12:46:59.705Z,8.68
2023-10-26T12:49:26.240Z,9.55
2023-10-26T12:51:52.851Z,10.18
2023-10-26T12:54:19.443Z,8.90
2023-10-26T12:56:45.998Z,9.82
2023-10-26T12:59:12.392Z,9.57
2023-10-26T13:01:39.136Z,10.07
2023-10-26T13:04:06.032Z,8.48
2023-10-26T13:06:37.262Z,8.68
2023-10-26T13:09:05.439Z,9.52
2023-10-26T13:11:32.783Z,9.50
2023-10-26T13:13:59.339Z,8.90
2023-10-26T13:16:26.032Z,9.93
2023-10-26T13:18:55.344Z,9.35
2023-10-26T13:21:21.774Z,8.95
2023-10-26T13:23:48.215Z,8.65
2023-10-26T13:26:14.646Z,8.73
2023-10-26T13:28:41.061Z,8.75
2023-10-26T13:31:08.068Z,9.60
2023-10-26T13:33:36.050Z,8.43
2023-10-26T13:36:03.200Z,8.40
2023-10-26T13:38:29.668Z,8.95
2023-10-26T13:40:56.650Z,9.80
2023-10-26T13:43:23.046Z,8.98
2023-10-26T13:45:49.502Z,8.15
2023-10-26T13:48:16.273Z,9.63
2023-10-26T13:50:44.777Z,9.10
2023-10-26T13:53:13.613Z,7.38
2023-10-26T13:55:40.022Z,7.75
2023-10-26T13:58:06.763Z,8.05
2023-10-26T14:00:37.302Z,8.00
2023-10-26T14:03:04.700Z,7.72
2023-10-26T14:05:32.293Z,9.35
2023-10-26T14:07:59.155Z,7.93
2023-10-26T14:10:26.359Z,8.60
2023-10-26T14:12:52.991Z,9.20
2023-10-26T14:15:19.458Z,8.60
2023-10-26T14:17:45.982Z,8.75
2023-10-26T14:20:12.483Z,8.57
2023-10-26T14:22:38.897Z,9.18
2023-10-26T14:25:05.737Z,9.07
2023-10-26T14:27:32.601Z,9.45
2023-10-26T14:29:59.004Z,8.93
2023-10-26T14:32:25.462Z,8.45
2023-10-26T14:34:51.863Z,8.60
2023-10-26T14:37:18.221Z,8.75
2023-10-26T14:39:45.985Z,8.50
2023-10-26T14:42:13.514Z,7.63
2023-10-26T14:44:40.466Z,8.10
2023-10-26T14:47:06.965Z,8.77
2023-10-26T14:49:33.996Z,9.43
2023-10-26T14:52:01.136Z,9.82
2023-10-26T14:54:27.711Z,8.98
2023-10-26T14:56:54.123Z,8.00
2023-10-26T14:59:20.771Z,7.82
2023-10-26T15:01:47.407Z,6.10
2023-10-26T15:04:13.980Z,7.13
2023-10-26T15:06:40.387Z,7.00
2023-10-26T15:09:07.150Z,7.75
2023-10-26T15:11:55.589Z,6.45
2023-10-26T15:14:23.007Z,6.85
2023-10-26T15:16:49.918Z,6.15
2023-10-26T15:19:16.400Z,7.00
2023-10-26T15:21:42.810Z,6.65
2023-10-26T15:24:09.416Z,7.18
2023-10-26T15:26:35.893Z,6.78
2023-10-26T15:29:02.572Z,6.75
2023-10-26T15:31:29.430Z,7.38
2023-10-26T15:33:58.032Z,7.60
2023-10-26T15:36:26.008Z,7.20
2023-10-26T15:38:54.931Z,7.57
2023-10-26T15:41:21.345Z,7.57
2023-10-26T15:43:47.763Z,7.47
2023-10-26T15:46:14.746Z,7.20
2023-10-26T15:49:30.960Z,7.82
2023-10-26T15:51:27.731Z,8.85
2023-10-26T15:53:54.092Z,7.30
2023-10-26T15:56:20.545Z,7.30
2023-10-26T15:58:47.716Z,6.85
2023-10-26T16:01:14.238Z,8.13
2023-10-26T16:03:40.727Z,7.82
2023-10-26T16:06:11.121Z,7.75
2023-10-26T16:08:38.772Z,7.38
2023-10-26T16:11:09.385Z,7.40
2023-10-26T16:13:35.840Z,7.40
2023-10-26T16:16:03.378Z,7.40
2023-10-26T16:18:29.872Z,8.18
2023-10-26T16:20:56.320Z,8.68
2023-10-26T16:23:24.057Z,7.60
2023-10-26T16:25:50.592Z,8.10
2023-10-26T16:28:18.411Z,8.07
2023-10-26T16:30:45.710Z,8.95
2023-10-26T16:33:13.518Z,8.35
2023-10-26T16:35:41.504Z,8.48
2023-10-26T16:38:08.131Z,8.52
2023-10-26T16:40:34.811Z,7.53
2023-10-26T16:43:02.268Z,8.07
2023-10-26T16:45:29.401Z,8.88
2023-10-26T16:47:56.457Z,8.48
2023-10-26T16:50:23.500Z,9.07
2023-10-26T16:52:50.294Z,8.27
2023-10-26T16:55:16.817Z,9.38
2023-10-26T16:57:43.364Z,10.02
2023-10-26T17:00:11.409Z,9.15
2023-10-26T17:02:38.318Z,8.73
2023-10-26T17:05:06.162Z,8.80
2023-10-26T17:07:35.170Z,8.98
2023-10-26T17:10:02.126Z,9.52
2023-10-26T17:12:28.615Z,8.70
2023-10-26T17:14:56.501Z,10.75
2023-10-26T17:17:26.632Z,13.93
2023-10-26T17:19:53.867Z,11.80
2023-10-26T17:22:20.276Z,11.43
2023-10-26T17:24:47.870Z,10.70
2023-10-26T17:27:14.578Z,9.73
2023-10-26T17:29:41.370Z,9.05
2023-10-26T17:32:07.845Z,9.60
2023-10-26T17:34:34.248Z,8.73
2023-10-26T17:37:01.275Z,10.13
2023-10-26T17:39:29.075Z,9.23
2023-10-26T17:41:55.607Z,9.10
2023-10-26T17:44:22.091Z,9.18
2023-10-26T17:46:48.634Z,10.02
2023-10-26T17:49:15.191Z,9.95
2023-10-26T17:51:41.633Z,9.93
2023-10-26T17:54:08.109Z,10.43
2023-10-26T17:56:35.381Z,8.90
2023-10-26T17:59:01.966Z,10.50
2023-10-26T18:01:29.488Z,8.52
2023-10-26T18:03:56.145Z,8.60
2023-10-26T18:06:23.542Z,8.43
2023-10-26T18:08:53.084Z,8.32
2023-10-26T18:11:19.450Z,9.90
2023-10-26T18:13:45.943Z,8.63
2023-10-26T18:16:13.497Z,9.95
2023-10-26T18:18:40.160Z,8.93
2023-10-26T18:21:08.649Z,9.40
2023-10-26T18:23:36.242Z,8.48
2023-10-26T18:26:05.370Z,9.40
2023-10-26T18:28:39.467Z,8.95
2023-10-26T18:31:09.798Z,9.98
2023-10-26T18:33:37.015Z,9.88
2023-10-26T18:36:04.780Z,9.80
2023-10-26T18:38:32.398Z,9.27
2023-10-26T18:40:59.939Z,8.27
2023-10-26T18:43:26.600Z,8.63
2023-10-26T18:46:01.595Z,9.38
2023-10-26T18:48:31.166Z,8.90
2023-10-26T18:50:57.858Z,8.98
2023-10-26T18:53:24.684Z,8.70
2023-10-26T18:55:51.579Z,9.57
2023-10-26T18:58:19.148Z,8.98
2023-10-26T19:00:46.976Z,9.43
2023-10-26T19:03:16.858Z,9.98
2023-10-26T19:05:44.252Z,9.05
2023-10-26T19:08:11.449Z,8.68
2023-10-26T19:10:39.138Z,8.85
2023-10-26T19:13:06.978Z,10.05
2023-10-26T19:15:34.411Z,9.85
2023-10-26T19:18:04.114Z,10.02
2023-10-26T19:20:33.189Z,9.55
2023-10-26T19:23:00.450Z,9.02
2023-10-26T19:25:28.827Z,8.77
2023-10-26T19:27:56.558Z,9.48
2023-10-26T19:30:26.341Z,9.48
2023-10-26T19:32:58.618Z,10.23
2023-10-26T19:35:26.264Z,9.30
2023-10-26T19:37:55.496Z,9.30
2023-10-26T19:40:22.506Z,10.52
2023-10-26T19:42:49.252Z,9.70
2023-10-26T19:45:15.773Z,10.93
2023-10-26T19:47:42.340Z,10.15
2023-10-26T19:50:09.957Z,10.45
2023-10-26T19:52:37.034Z,11.52
2023-10-26T19:55:04.636Z,12.30
2023-10-26T19:57:31.526Z,12.18
2023-10-26T19:59:57.933Z,10.55
2023-10-26T20:02:24.492Z,11.05
2023-10-26T20:04:50.877Z,12.30
2023-10-26T20:07:17.409Z,11.45
2023-10-26T20:09:44.042Z,11.15
2023-10-26T20:12:10.688Z,12.50
2023-10-26T20:14:37.133Z,10.98
2023-10-26T20:17:03.719Z,13.10
2023-10-26T20:19:30.793Z,12.38
2023-10-26T20:21:57.820Z,12.57
2023-10-26T20:24:26.938Z,13.13
2023-10-26T20:26:54.728Z,12.65
2023-10-26T20:29:21.149Z,13.95
2023-10-26T20:31:47.624Z,11.82
2023-10-26T20:34:19.891Z,13.82
2023-10-26T20:36:47.465Z,12.05
2023-10-26T20:39:14.135Z,13.20
2023-10-26T20:41:44.683Z,13.63
2023-10-26T20:44:13.307Z,13.18
2023-10-26T20:46:39.849Z,13.70
2023-10-26T20:49:06.439Z,12.10
2023-10-26T20:51:34.503Z,12.90
2023-10-26T20:54:02.040Z,13.00
2023-10-26T20:56:28.402Z,14.38
2023-10-26T20:58:54.875Z,13.05
2023-10-26T21:01:21.332Z,13.80
2023-10-26T21:03:47.775Z,13.38
2023-10-26T21:06:15.091Z,13.98
2023-10-26T21:08:43.865Z,14.85
2023-10-26T21:11:18.200Z,14.13
2023-10-26T21:13:45.072Z,13.43
2023-10-26T21:16:11.785Z,13.00
2023-10-26T21:18:38.399Z,14.90
2023-10-26T21:21:08.417Z,15.10
2023-10-26T21:23:36.409Z,13.43
2023-10-26T21:26:12.953Z,12.95
2023-10-26T21:28:42.520Z,14.00
2023-10-26T21:31:08.973Z,14.70
2023-10-26T21:33:35.538Z,15.00
2023-10-26T21:36:05.382Z,14.30
2023-10-26T21:38:31.829Z,14.77
2023-10-26T21:41:03.233Z,13.50
2023-10-26T21:43:30.941Z,13.27
2023-10-26T21:45:57.577Z,13.27
2023-10-26T21:48:24.174Z,14.05
2023-10-26T21:50:50.718Z,12.50
2023-10-26T21:53:18.113Z,13.30
2023-10-26T21:55:44.618Z,13.43
2023-10-26T21:58:11.456Z,13.98
2023-10-26T22:00:38.047Z,12.82
2023-10-26T22:03:05.805Z,13.88
2023-10-26T22:05:32.589Z,12.48
2023-10-26T22:07:59.607Z,13.52
2023-10-26T22:10:26.073Z,12.25
2023-10-26T22:12:53.176Z,13.40
2023-10-26T22:15:19.745Z,13.40
2023-10-26T22:17:46.341Z,12.93
2023-10-26T22:20:12.841Z,14.10
2023-10-26T22:22:39.571Z,12.32
2023-10-26T22:25:07.488Z,13.15
2023-10-26T22:27:34.828Z,13.30
2023-10-26T22:30:01.370Z,12.60
2023-10-26T22:32:27.856Z,12.98
2023-10-26T22:34:54.396Z,12.45
2023-10-26T22:37:20.866Z,13.48
2023-10-26T22:39:48.218Z,11.63
2023-10-26T22:42:15.659Z,13.10
2023-10-26T22:44:42.594Z,13.32
2023-10-26T22:47:09.111Z,13.75
2023-10-26T22:49:35.625Z,13.95
2023-10-26T22:52:02.112Z,13.35
2023-10-26T22:54:28.599Z,13.98
2023-10-26T22:56:55.147Z,15.15
2023-10-26T22:59:21.856Z,13.57
2023-10-26T23:01:48.749Z,14.23
2023-10-26T23:04:15.676Z,12.43
2023-10-26T23:06:42.384Z,13.13
2023-10-26T23:09:10.066Z,13.57
2023-10-26T23:11:36.572Z,12.65
2023-10-26T23:14:03.167Z,13.65
2023-10-26T23:16:29.995Z,13.35
2023-10-26T23:18:56.969Z,12.98
2023-10-26T23:21:23.456Z,13.57
2023-10-26T23:23:49.871Z,13.60
2023-10-26T23:26:16.480Z,14.65
2023-10-26T23:28:42.950Z,14.55
2023-10-26T23:31:12.654Z,13.30
2023-10-26T23:33:39.316Z,13.02
2023-10-26T23:36:12.985Z,13.18
2023-10-26T23:38:39.985Z,13.23
2023-10-26T23:41:07.348Z,12.40
2023-10-26T23:43:33.905Z,12.70
2023-10-26T23:46:00.503Z,13.10
2023-10-26T23:48:27.055Z,11.55
2023-10-26T23:50:53.661Z,11.27
2023-10-26T23:53:20.827Z,12.57
2023-10-26T23:55:48.914Z,13.77
2023-10-26T23:58:15.647Z,13.75
